Oliverea, NY

6:39 PM EST on March 01, 2015 (GMT -0500)
Big Indian | Change Station
CLOSE
Current Station
Personal Weather Station
Location: Big Indian, NY
Elevation: 1315 ft
Nearby Weather Stations
Active Advisory: Winter Weather Advisory Active Notice: Public Information Statement

Elev 1315 ft 42.09 °N, 74.45 °W | Updated 3 minutes ago

Snow
Snow
20.6 °F
Feels Like 21 °F
N
1.0
Wind Variable Wind from NNW
Gusts 3.0 mph

Today
High -- | Low -- °F
--% Chance of Precip.
Yesterday
High -- | Low -- °F
Precip. -- in
6:33 AM 5:47 PM
Waxing Gibbous, 88% visible
Pressure 30.22 in
Visibility 2.5 miles
Clouds Overcast 2100 ft
Windchill 21 °F
Dew Point 19 °F
Humidity 92%
Rainfall 0.00 in
Snow Depth Not available.
UV 0 out of 12
Pollen .40 out of 12
Air Quality Not available.
Flu Activity Not available.
METAR KMSV 012335Z AUTO 15005KT 2 1/2SM OVC021 M07/M09 A3022 RMK AO1

More Conditions Fewer Conditions

Pressure 30.22 in
Visibility 2.5 miles
Clouds Overcast 2100 ft
Windchill 21 °F
Dew Point 19 °F
Humidity 92%
Rainfall 0.00 in
Snow Depth Not available.
UV 0 out of 12
Pollen .40 out of 12
Air Quality Not available.
Flu Activity Not available.
METAR KMSV 012335Z AUTO 15005KT 2 1/2SM OVC021 M07/M09 A3022 RMK AO1

More Conditions Fewer Conditions

10-Day Weather Forecast

Almanac

Astronomy

Mar. 01, 2015 Rise Set
Actual Time
Civil Twilight
Nautical Twilight
Astronomical Twilight
Moon
Length of Visible Light
Length of Day
Tomorrow will be .
, % of the Moon is Illuminated

Today's Extremes

State Highs State Lows

Community

WunderPhotos

Upload Photos

1,801,610 photos uploaded!

WunderBlogs® & News

Nearby

Air Quality

  Air Quality AQ Index Pollutant
Not available.

Snow Depth

Station Depth Elevation

Earthquake Activity

City Distance Mag. Time & Date
Minimum magnitude displayed is 2.5.

Coastal Water Temperatures

Place Temperature

Nearby Weather Stations

Winter Weather Advisory
Statement as of 10:08 AM EST on March 01, 2015

... Winter Weather Advisory remains in effect until 7 am EST
Monday...

* locations... Herkimer County... the Mohawk Valley... Schoharie
valley... eastern Catskills... Mid Hudson valley... Taconics...
Litchfield Hills... the Berkshires and southern Green
Mountains.

* Hazard types... snow.

* Snow accumulations... 3 to 6 inches... with the highest amounts
across Ulster... Dutchess... southern Berkshire and Litchfield
counties.

* Timing... mainly this afternoon through tonight.

* Impacts... snow covered roads and poor visibility resulting in
hazardous travel conditions.

* Winds... south 5 to 15 mph.

* Temperatures... in the upper teens to mid 20s.

Precautionary/preparedness actions...

A Winter Weather Advisory for snow means that periods of snow
will cause primarily travel difficulties. Be prepared for snow
covered roads and limited visibilities... and use caution while
driving.